sensor_id;sensor_type;location;lat;lon;timestamp;P1;durP1;ratioP1;P2;durP2;ratioP2
17850;SDS011;9051;51.548;14.348;2023-02-15T00:02:17;34.80;;;19.20;;
17850;SDS011;9051;51.548;14.348;2023-02-15T00:04:49;32.17;;;18.57;;
17850;SDS011;9051;51.548;14.348;2023-02-15T00:07:21;31.80;;;19.33;;
17850;SDS011;9051;51.548;14.348;2023-02-15T00:09:55;35.73;;;20.57;;
17850;SDS011;9051;51.548;14.348;2023-02-15T00:12:27;36.10;;;19.97;;
17850;SDS011;9051;51.548;14.348;2023-02-15T00:14:59;35.43;;;20.13;;
17850;SDS011;9051;51.548;14.348;2023-02-15T00:17:31;35.53;;;19.97;;
17850;SDS011;9051;51.548;14.348;2023-02-15T00:20:03;31.63;;;19.53;;
17850;SDS011;9051;51.548;14.348;2023-02-15T00:22:35;32.27;;;19.93;;
17850;SDS011;9051;51.548;14.348;2023-02-15T00:25:09;35.73;;;20.33;;
17850;SDS011;9051;51.548;14.348;2023-02-15T00:27:40;35.53;;;20.63;;
17850;SDS011;9051;51.548;14.348;2023-02-15T00:30:13;35.80;;;19.67;;
17850;SDS011;9051;51.548;14.348;2023-02-15T00:32:46;34.27;;;20.03;;
17850;SDS011;9051;51.548;14.348;2023-02-15T00:35:18;35.93;;;21.03;;
17850;SDS011;9051;51.548;14.348;2023-02-15T00:37:50;35.90;;;20.83;;
17850;SDS011;9051;51.548;14.348;2023-02-15T00:40:23;34.07;;;18.87;;
17850;SDS011;9051;51.548;14.348;2023-02-15T00:42:55;35.17;;;20.07;;
17850;SDS011;9051;51.548;14.348;2023-02-15T00:45:28;34.53;;;20.00;;
17850;SDS011;9051;51.548;14.348;2023-02-15T00:48:00;37.97;;;20.03;;
17850;SDS011;9051;51.548;14.348;2023-02-15T00:50:32;36.57;;;19.67;;
17850;SDS011;9051;51.548;14.348;2023-02-15T00:53:04;35.63;;;19.27;;
17850;SDS011;9051;51.548;14.348;2023-02-15T00:55:38;35.37;;;20.17;;
17850;SDS011;9051;51.548;14.348;2023-02-15T00:58:10;33.80;;;21.10;;
17850;SDS011;9051;51.548;14.348;2023-02-15T01:00:44;37.20;;;21.33;;
17850;SDS011;9051;51.548;14.348;2023-02-15T01:03:17;30.77;;;19.00;;
17850;SDS011;9051;51.548;14.348;2023-02-15T01:05:50;35.80;;;20.00;;
17850;SDS011;9051;51.548;14.348;2023-02-15T01:08:23;33.97;;;19.47;;
17850;SDS011;9051;51.548;14.348;2023-02-15T01:10:56;35.43;;;20.50;;
17850;SDS011;9051;51.548;14.348;2023-02-15T01:13:34;35.60;;;20.77;;
17850;SDS011;9051;51.548;14.348;2023-02-15T01:16:06;35.93;;;21.27;;
17850;SDS011;9051;51.548;14.348;2023-02-15T01:18:39;36.60;;;20.80;;
17850;SDS011;9051;51.548;14.348;2023-02-15T01:21:12;32.93;;;19.60;;
17850;SDS011;9051;51.548;14.348;2023-02-15T01:23:47;32.77;;;18.87;;
17850;SDS011;9051;51.548;14.348;2023-02-15T01:26:20;37.63;;;20.23;;
17850;SDS011;9051;51.548;14.348;2023-02-15T01:28:52;36.13;;;19.63;;
17850;SDS011;9051;51.548;14.348;2023-02-15T01:31:24;32.60;;;19.83;;
17850;SDS011;9051;51.548;14.348;2023-02-15T01:33:56;34.63;;;19.93;;
17850;SDS011;9051;51.548;14.348;2023-02-15T01:36:28;35.50;;;19.63;;
17850;SDS011;9051;51.548;14.348;2023-02-15T01:39:00;34.90;;;20.00;;
17850;SDS011;9051;51.548;14.348;2023-02-15T01:41:36;36.90;;;20.93;;
17850;SDS011;9051;51.548;14.348;2023-02-15T01:47:20;32.87;;;19.40;;
17850;SDS011;9051;51.548;14.348;2023-02-15T01:49:57;32.60;;;18.33;;
17850;SDS011;9051;51.548;14.348;2023-02-15T01:52:32;35.53;;;20.17;;
17850;SDS011;9051;51.548;14.348;2023-02-15T01:55:06;34.83;;;19.97;;
17850;SDS011;9051;51.548;14.348;2023-02-15T01:57:41;36.20;;;20.70;;
17850;SDS011;9051;51.548;14.348;2023-02-15T02:00:15;34.67;;;19.67;;
17850;SDS011;9051;51.548;14.348;2023-02-15T02:02:52;38.20;;;21.03;;
17850;SDS011;9051;51.548;14.348;2023-02-15T02:05:28;37.40;;;20.80;;
17850;SDS011;9051;51.548;14.348;2023-02-15T02:08:01;34.73;;;20.47;;
17850;SDS011;9051;51.548;14.348;2023-02-15T02:10:35;35.80;;;20.03;;
17850;SDS011;9051;51.548;14.348;2023-02-15T02:13:09;36.77;;;20.90;;
17850;SDS011;9051;51.548;14.348;2023-02-15T02:15:43;36.03;;;20.87;;
17850;SDS011;9051;51.548;14.348;2023-02-15T02:18:24;37.40;;;21.37;;
17850;SDS011;9051;51.548;14.348;2023-02-15T02:24:41;37.33;;;20.83;;
17850;SDS011;9051;51.548;14.348;2023-02-15T02:27:46;40.93;;;21.43;;
17850;SDS011;9051;51.548;14.348;2023-02-15T02:30:29;36.53;;;21.40;;
17850;SDS011;9051;51.548;14.348;2023-02-15T02:33:40;38.87;;;20.57;;
17850;SDS011;9051;51.548;14.348;2023-02-15T02:36:22;37.03;;;20.63;;
17850;SDS011;9051;51.548;14.348;2023-02-15T02:39:08;37.30;;;21.00;;
17850;SDS011;9051;51.548;14.348;2023-02-15T02:41:55;35.10;;;21.47;;
17850;SDS011;9051;51.548;14.348;2023-02-15T02:44:31;35.73;;;21.40;;
17850;SDS011;9051;51.548;14.348;2023-02-15T02:47:14;34.47;;;19.60;;
17850;SDS011;9051;51.548;14.348;2023-02-15T02:49:56;37.10;;;21.23;;
17850;SDS011;9051;51.548;14.348;2023-02-15T02:52:38;36.60;;;21.03;;
17850;SDS011;9051;51.548;14.348;2023-02-15T02:55:13;40.67;;;21.00;;
17850;SDS011;9051;51.548;14.348;2023-02-15T02:57:52;36.10;;;21.30;;
17850;SDS011;9051;51.548;14.348;2023-02-15T03:00:26;38.80;;;21.90;;
17850;SDS011;9051;51.548;14.348;2023-02-15T03:03:02;41.27;;;22.00;;
17850;SDS011;9051;51.548;14.348;2023-02-15T03:05:43;36.20;;;21.10;;
17850;SDS011;9051;51.548;14.348;2023-02-15T03:08:19;36.50;;;21.27;;
17850;SDS011;9051;51.548;14.348;2023-02-15T03:10:57;42.03;;;21.80;;
17850;SDS011;9051;51.548;14.348;2023-02-15T03:13:31;39.00;;;21.33;;
17850;SDS011;9051;51.548;14.348;2023-02-15T03:16:05;35.53;;;20.40;;
17850;SDS011;9051;51.548;14.348;2023-02-15T03:18:59;36.97;;;20.80;;
17850;SDS011;9051;51.548;14.348;2023-02-15T03:21:37;41.10;;;23.03;;
17850;SDS011;9051;51.548;14.348;2023-02-15T03:24:13;40.77;;;22.47;;
17850;SDS011;9051;51.548;14.348;2023-02-15T03:26:49;38.97;;;22.47;;
17850;SDS011;9051;51.548;14.348;2023-02-15T03:29:23;41.00;;;21.90;;
17850;SDS011;9051;51.548;14.348;2023-02-15T03:31:59;36.73;;;20.60;;
17850;SDS011;9051;51.548;14.348;2023-02-15T03:34:33;43.40;;;23.77;;
17850;SDS011;9051;51.548;14.348;2023-02-15T03:37:09;37.40;;;21.07;;
17850;SDS011;9051;51.548;14.348;2023-02-15T03:39:45;40.20;;;22.97;;
17850;SDS011;9051;51.548;14.348;2023-02-15T03:42:23;36.47;;;21.50;;
17850;SDS011;9051;51.548;14.348;2023-02-15T03:44:59;38.10;;;22.07;;
17850;SDS011;9051;51.548;14.348;2023-02-15T03:47:37;37.83;;;20.73;;
17850;SDS011;9051;51.548;14.348;2023-02-15T03:50:13;37.57;;;21.93;;
17850;SDS011;9051;51.548;14.348;2023-02-15T03:53:09;37.37;;;20.40;;
17850;SDS011;9051;51.548;14.348;2023-02-15T03:55:45;36.93;;;20.70;;
17850;SDS011;9051;51.548;14.348;2023-02-15T03:58:18;36.77;;;21.43;;
17850;SDS011;9051;51.548;14.348;2023-02-15T04:01:10;37.47;;;21.60;;
17850;SDS011;9051;51.548;14.348;2023-02-15T04:04:05;35.73;;;21.03;;
17850;SDS011;9051;51.548;14.348;2023-02-15T04:06:43;41.00;;;21.60;;
17850;SDS011;9051;51.548;14.348;2023-02-15T04:09:16;36.67;;;20.67;;
17850;SDS011;9051;51.548;14.348;2023-02-15T04:12:05;35.63;;;20.73;;
17850;SDS011;9051;51.548;14.348;2023-02-15T04:14:37;39.87;;;21.03;;
17850;SDS011;9051;51.548;14.348;2023-02-15T04:17:27;36.00;;;20.40;;
17850;SDS011;9051;51.548;14.348;2023-02-15T04:19:59;37.60;;;20.90;;
17850;SDS011;9051;51.548;14.348;2023-02-15T04:22:48;37.63;;;21.00;;
17850;SDS011;9051;51.548;14.348;2023-02-15T04:25:39;39.37;;;20.70;;
17850;SDS011;9051;51.548;14.348;2023-02-15T04:28:11;33.83;;;21.03;;
17850;SDS011;9051;51.548;14.348;2023-02-15T04:30:43;38.80;;;20.87;;
17850;SDS011;9051;51.548;14.348;2023-02-15T04:33:14;38.03;;;20.20;;
17850;SDS011;9051;51.548;14.348;2023-02-15T04:35:46;38.80;;;20.40;;
17850;SDS011;9051;51.548;14.348;2023-02-15T04:38:18;36.50;;;20.87;;
17850;SDS011;9051;51.548;14.348;2023-02-15T04:40:52;35.10;;;19.47;;
17850;SDS011;9051;51.548;14.348;2023-02-15T04:43:24;38.07;;;21.13;;
17850;SDS011;9051;51.548;14.348;2023-02-15T04:45:55;37.43;;;20.70;;
17850;SDS011;9051;51.548;14.348;2023-02-15T04:48:29;37.07;;;20.53;;
17850;SDS011;9051;51.548;14.348;2023-02-15T04:51:04;40.87;;;21.40;;
17850;SDS011;9051;51.548;14.348;2023-02-15T04:53:36;38.53;;;20.97;;
17850;SDS011;9051;51.548;14.348;2023-02-15T04:56:09;38.03;;;20.77;;
17850;SDS011;9051;51.548;14.348;2023-02-15T04:58:41;39.70;;;21.33;;
17850;SDS011;9051;51.548;14.348;2023-02-15T05:01:13;37.57;;;21.07;;
17850;SDS011;9051;51.548;14.348;2023-02-15T05:03:45;38.00;;;22.07;;
17850;SDS011;9051;51.548;14.348;2023-02-15T05:06:17;36.93;;;20.40;;
17850;SDS011;9051;51.548;14.348;2023-02-15T05:08:49;35.60;;;20.70;;
17850;SDS011;9051;51.548;14.348;2023-02-15T05:11:23;39.23;;;21.83;;
17850;SDS011;9051;51.548;14.348;2023-02-15T05:13:55;39.83;;;22.63;;
17850;SDS011;9051;51.548;14.348;2023-02-15T05:16:26;36.67;;;21.33;;
17850;SDS011;9051;51.548;14.348;2023-02-15T05:18:58;37.77;;;21.97;;
17850;SDS011;9051;51.548;14.348;2023-02-15T05:21:31;35.47;;;20.83;;
17850;SDS011;9051;51.548;14.348;2023-02-15T05:24:03;35.60;;;19.37;;
17850;SDS011;9051;51.548;14.348;2023-02-15T05:26:57;38.63;;;21.23;;
17850;SDS011;9051;51.548;14.348;2023-02-15T05:29:46;37.40;;;20.27;;
17850;SDS011;9051;51.548;14.348;2023-02-15T05:32:18;40.30;;;21.67;;
17850;SDS011;9051;51.548;14.348;2023-02-15T05:34:49;38.30;;;21.83;;
17850;SDS011;9051;51.548;14.348;2023-02-15T05:37:21;39.23;;;20.97;;
17850;SDS011;9051;51.548;14.348;2023-02-15T05:39:53;36.57;;;20.77;;
17850;SDS011;9051;51.548;14.348;2023-02-15T05:42:27;38.80;;;21.87;;
17850;SDS011;9051;51.548;14.348;2023-02-15T05:44:58;35.87;;;20.57;;
17850;SDS011;9051;51.548;14.348;2023-02-15T05:47:30;38.13;;;20.87;;
17850;SDS011;9051;51.548;14.348;2023-02-15T05:50:02;38.47;;;20.80;;
17850;SDS011;9051;51.548;14.348;2023-02-15T05:52:35;37.90;;;21.03;;
17850;SDS011;9051;51.548;14.348;2023-02-15T05:55:07;37.27;;;20.67;;
17850;SDS011;9051;51.548;14.348;2023-02-15T05:57:41;38.07;;;21.97;;
17850;SDS011;9051;51.548;14.348;2023-02-15T06:00:13;35.33;;;19.67;;
17850;SDS011;9051;51.548;14.348;2023-02-15T06:02:45;36.60;;;21.07;;
17850;SDS011;9051;51.548;14.348;2023-02-15T06:05:17;39.17;;;21.57;;
17850;SDS011;9051;51.548;14.348;2023-02-15T06:07:49;39.10;;;21.30;;
17850;SDS011;9051;51.548;14.348;2023-02-15T06:10:21;37.43;;;20.60;;
17850;SDS011;9051;51.548;14.348;2023-02-15T06:12:54;38.87;;;20.80;;
17850;SDS011;9051;51.548;14.348;2023-02-15T06:15:26;39.27;;;21.43;;
17850;SDS011;9051;51.548;14.348;2023-02-15T06:17:58;38.47;;;20.20;;
17850;SDS011;9051;51.548;14.348;2023-02-15T06:20:30;39.47;;;20.87;;
17850;SDS011;9051;51.548;14.348;2023-02-15T06:23:02;35.83;;;20.60;;
17850;SDS011;9051;51.548;14.348;2023-02-15T06:25:34;36.03;;;20.53;;
17850;SDS011;9051;51.548;14.348;2023-02-15T06:28:07;38.47;;;20.37;;
17850;SDS011;9051;51.548;14.348;2023-02-15T06:30:39;42.03;;;22.37;;
17850;SDS011;9051;51.548;14.348;2023-02-15T06:33:11;40.17;;;22.23;;
17850;SDS011;9051;51.548;14.348;2023-02-15T06:35:43;40.43;;;22.30;;
17850;SDS011;9051;51.548;14.348;2023-02-15T06:38:16;39.20;;;21.70;;
17850;SDS011;9051;51.548;14.348;2023-02-15T06:40:48;39.67;;;22.20;;
17850;SDS011;9051;51.548;14.348;2023-02-15T06:43:21;39.93;;;22.77;;
17850;SDS011;9051;51.548;14.348;2023-02-15T06:45:53;42.80;;;22.87;;
17850;SDS011;9051;51.548;14.348;2023-02-15T06:48:25;41.23;;;23.23;;
17850;SDS011;9051;51.548;14.348;2023-02-15T06:50:57;42.70;;;23.00;;
17850;SDS011;9051;51.548;14.348;2023-02-15T06:53:29;40.63;;;22.20;;
17850;SDS011;9051;51.548;14.348;2023-02-15T06:56:01;39.43;;;22.30;;
17850;SDS011;9051;51.548;14.348;2023-02-15T06:58:38;41.03;;;22.13;;
17850;SDS011;9051;51.548;14.348;2023-02-15T07:01:11;42.07;;;22.30;;
17850;SDS011;9051;51.548;14.348;2023-02-15T07:03:43;43.90;;;22.67;;
17850;SDS011;9051;51.548;14.348;2023-02-15T07:06:15;39.57;;;21.53;;
17850;SDS011;9051;51.548;14.348;2023-02-15T07:08:46;36.90;;;21.43;;
17850;SDS011;9051;51.548;14.348;2023-02-15T07:11:18;39.10;;;21.77;;
17850;SDS011;9051;51.548;14.348;2023-02-15T07:14:09;41.97;;;23.57;;
17850;SDS011;9051;51.548;14.348;2023-02-15T07:16:41;40.87;;;22.40;;
17850;SDS011;9051;51.548;14.348;2023-02-15T07:19:13;46.07;;;24.87;;
17850;SDS011;9051;51.548;14.348;2023-02-15T07:21:45;44.50;;;23.80;;
17850;SDS011;9051;51.548;14.348;2023-02-15T07:24:17;45.20;;;24.03;;
17850;SDS011;9051;51.548;14.348;2023-02-15T07:26:49;45.47;;;23.90;;
17850;SDS011;9051;51.548;14.348;2023-02-15T07:29:22;41.33;;;23.60;;
17850;SDS011;9051;51.548;14.348;2023-02-15T07:31:54;42.30;;;25.00;;
17850;SDS011;9051;51.548;14.348;2023-02-15T07:34:26;45.83;;;25.47;;
17850;SDS011;9051;51.548;14.348;2023-02-15T07:36:58;47.40;;;25.77;;
17850;SDS011;9051;51.548;14.348;2023-02-15T07:39:30;46.37;;;25.17;;
17850;SDS011;9051;51.548;14.348;2023-02-15T07:42:02;46.73;;;25.00;;
17850;SDS011;9051;51.548;14.348;2023-02-15T07:44:36;47.90;;;26.53;;
17850;SDS011;9051;51.548;14.348;2023-02-15T07:47:08;49.63;;;26.27;;
17850;SDS011;9051;51.548;14.348;2023-02-15T07:49:40;46.63;;;25.57;;
17850;SDS011;9051;51.548;14.348;2023-02-15T07:52:12;47.40;;;26.10;;
17850;SDS011;9051;51.548;14.348;2023-02-15T07:54:44;46.57;;;26.53;;
17850;SDS011;9051;51.548;14.348;2023-02-15T07:57:15;49.03;;;27.13;;
17850;SDS011;9051;51.548;14.348;2023-02-15T07:59:49;50.17;;;26.43;;
17850;SDS011;9051;51.548;14.348;2023-02-15T08:02:21;44.53;;;25.40;;
17850;SDS011;9051;51.548;14.348;2023-02-15T08:04:53;51.30;;;27.80;;
17850;SDS011;9051;51.548;14.348;2023-02-15T08:07:24;48.07;;;26.30;;
17850;SDS011;9051;51.548;14.348;2023-02-15T08:09:56;48.40;;;25.63;;
17850;SDS011;9051;51.548;14.348;2023-02-15T08:12:29;53.77;;;27.97;;
17850;SDS011;9051;51.548;14.348;2023-02-15T08:15:02;54.23;;;28.87;;
17850;SDS011;9051;51.548;14.348;2023-02-15T08:17:35;53.63;;;29.03;;
17850;SDS011;9051;51.548;14.348;2023-02-15T08:20:08;53.77;;;29.27;;
17850;SDS011;9051;51.548;14.348;2023-02-15T08:22:40;51.77;;;29.77;;
17850;SDS011;9051;51.548;14.348;2023-02-15T08:25:12;51.90;;;28.53;;
17850;SDS011;9051;51.548;14.348;2023-02-15T08:27:44;56.40;;;27.87;;
17850;SDS011;9051;51.548;14.348;2023-02-15T08:30:18;52.20;;;26.90;;
17850;SDS011;9051;51.548;14.348;2023-02-15T08:32:50;51.90;;;28.53;;
17850;SDS011;9051;51.548;14.348;2023-02-15T08:35:22;51.30;;;27.63;;
17850;SDS011;9051;51.548;14.348;2023-02-15T08:37:54;55.03;;;28.27;;
17850;SDS011;9051;51.548;14.348;2023-02-15T08:40:26;47.03;;;26.40;;
17850;SDS011;9051;51.548;14.348;2023-02-15T08:42:58;46.37;;;26.53;;
17850;SDS011;9051;51.548;14.348;2023-02-15T08:45:31;47.47;;;26.40;;
17850;SDS011;9051;51.548;14.348;2023-02-15T08:48:03;51.47;;;26.87;;
17850;SDS011;9051;51.548;14.348;2023-02-15T08:50:35;52.20;;;28.63;;
17850;SDS011;9051;51.548;14.348;2023-02-15T08:53:07;47.33;;;27.47;;
17850;SDS011;9051;51.548;14.348;2023-02-15T08:55:39;48.40;;;27.13;;
17850;SDS011;9051;51.548;14.348;2023-02-15T08:58:11;46.20;;;25.97;;
17850;SDS011;9051;51.548;14.348;2023-02-15T09:00:44;52.00;;;28.43;;
17850;SDS011;9051;51.548;14.348;2023-02-15T09:03:16;49.63;;;26.93;;
17850;SDS011;9051;51.548;14.348;2023-02-15T09:05:48;51.20;;;27.60;;
17850;SDS011;9051;51.548;14.348;2023-02-15T09:08:20;50.13;;;28.87;;
17850;SDS011;9051;51.548;14.348;2023-02-15T09:10:52;46.97;;;26.47;;
17850;SDS011;9051;51.548;14.348;2023-02-15T09:13:25;51.90;;;28.50;;
17850;SDS011;9051;51.548;14.348;2023-02-15T09:16:00;49.17;;;27.27;;
17850;SDS011;9051;51.548;14.348;2023-02-15T09:18:33;49.13;;;27.07;;
17850;SDS011;9051;51.548;14.348;2023-02-15T09:21:08;49.67;;;27.33;;
17850;SDS011;9051;51.548;14.348;2023-02-15T09:23:45;50.33;;;26.73;;
17850;SDS011;9051;51.548;14.348;2023-02-15T09:26:18;49.87;;;27.20;;
17850;SDS011;9051;51.548;14.348;2023-02-15T09:28:52;51.07;;;28.07;;
17850;SDS011;9051;51.548;14.348;2023-02-15T09:31:29;47.93;;;28.83;;
17850;SDS011;9051;51.548;14.348;2023-02-15T09:34:02;49.67;;;26.70;;
17850;SDS011;9051;51.548;14.348;2023-02-15T09:36:35;47.30;;;26.80;;
17850;SDS011;9051;51.548;14.348;2023-02-15T09:39:09;50.17;;;27.13;;
17850;SDS011;9051;51.548;14.348;2023-02-15T09:45:07;48.37;;;27.27;;
17850;SDS011;9051;51.548;14.348;2023-02-15T09:47:56;44.97;;;26.17;;
17850;SDS011;9051;51.548;14.348;2023-02-15T09:50:51;48.13;;;25.93;;
17850;SDS011;9051;51.548;14.348;2023-02-15T09:53:34;49.37;;;26.73;;
17850;SDS011;9051;51.548;14.348;2023-02-15T09:56:19;46.60;;;26.63;;
17850;SDS011;9051;51.548;14.348;2023-02-15T09:58:57;45.47;;;25.77;;
17850;SDS011;9051;51.548;14.348;2023-02-15T10:01:37;44.80;;;24.90;;
17850;SDS011;9051;51.548;14.348;2023-02-15T10:04:24;44.87;;;25.50;;
17850;SDS011;9051;51.548;14.348;2023-02-15T10:07:12;48.40;;;26.30;;
17850;SDS011;9051;51.548;14.348;2023-02-15T10:10:01;49.37;;;27.27;;
17850;SDS011;9051;51.548;14.348;2023-02-15T10:12:49;47.60;;;26.80;;
17850;SDS011;9051;51.548;14.348;2023-02-15T10:15:36;47.00;;;28.03;;
17850;SDS011;9051;51.548;14.348;2023-02-15T10:18:29;47.00;;;26.83;;
17850;SDS011;9051;51.548;14.348;2023-02-15T10:21:19;51.60;;;28.47;;
17850;SDS011;9051;51.548;14.348;2023-02-15T10:24:11;47.50;;;26.63;;
17850;SDS011;9051;51.548;14.348;2023-02-15T10:26:57;46.90;;;26.10;;
17850;SDS011;9051;51.548;14.348;2023-02-15T10:29:38;50.27;;;28.07;;
17850;SDS011;9051;51.548;14.348;2023-02-15T10:32:16;51.07;;;28.47;;
17850;SDS011;9051;51.548;14.348;2023-02-15T10:34:54;49.63;;;27.57;;
17850;SDS011;9051;51.548;14.348;2023-02-15T10:37:36;50.23;;;28.17;;
17850;SDS011;9051;51.548;14.348;2023-02-15T10:40:36;46.97;;;27.00;;
17850;SDS011;9051;51.548;14.348;2023-02-15T10:43:25;46.13;;;26.50;;
17850;SDS011;9051;51.548;14.348;2023-02-15T10:46:12;46.00;;;27.67;;
17850;SDS011;9051;51.548;14.348;2023-02-15T10:52:01;40.50;;;24.50;;
17850;SDS011;9051;51.548;14.348;2023-02-15T10:54:45;41.07;;;23.93;;
17850;SDS011;9051;51.548;14.348;2023-02-15T10:57:26;43.17;;;23.90;;
17850;SDS011;9051;51.548;14.348;2023-02-15T11:00:12;38.60;;;23.63;;
17850;SDS011;9051;51.548;14.348;2023-02-15T11:02:55;37.17;;;22.70;;
17850;SDS011;9051;51.548;14.348;2023-02-15T11:05:59;36.57;;;22.37;;
17850;SDS011;9051;51.548;14.348;2023-02-15T11:08:43;40.23;;;23.40;;
17850;SDS011;9051;51.548;14.348;2023-02-15T11:11:21;38.53;;;22.17;;
17850;SDS011;9051;51.548;14.348;2023-02-15T11:13:57;38.40;;;23.13;;
17850;SDS011;9051;51.548;14.348;2023-02-15T11:16:34;35.83;;;21.90;;
17850;SDS011;9051;51.548;14.348;2023-02-15T11:19:11;40.43;;;23.17;;
17850;SDS011;9051;51.548;14.348;2023-02-15T11:21:49;37.80;;;22.17;;
17850;SDS011;9051;51.548;14.348;2023-02-15T11:24:25;36.23;;;22.37;;
17850;SDS011;9051;51.548;14.348;2023-02-15T11:27:02;36.30;;;21.97;;
17850;SDS011;9051;51.548;14.348;2023-02-15T11:29:37;35.53;;;21.70;;
17850;SDS011;9051;51.548;14.348;2023-02-15T11:32:13;37.00;;;21.33;;
17850;SDS011;9051;51.548;14.348;2023-02-15T11:34:51;37.33;;;21.70;;
17850;SDS011;9051;51.548;14.348;2023-02-15T11:37:27;34.73;;;21.57;;
17850;SDS011;9051;51.548;14.348;2023-02-15T11:40:12;35.90;;;21.67;;
17850;SDS011;9051;51.548;14.348;2023-02-15T11:42:53;31.23;;;19.87;;
17850;SDS011;9051;51.548;14.348;2023-02-15T11:45:27;30.10;;;19.77;;
17850;SDS011;9051;51.548;14.348;2023-02-15T11:48:00;30.37;;;19.90;;
17850;SDS011;9051;51.548;14.348;2023-02-15T11:50:40;30.67;;;19.13;;
17850;SDS011;9051;51.548;14.348;2023-02-15T11:53:14;31.43;;;20.07;;
17850;SDS011;9051;51.548;14.348;2023-02-15T11:55:48;27.90;;;18.43;;
17850;SDS011;9051;51.548;14.348;2023-02-15T11:58:25;30.23;;;19.93;;
17850;SDS011;9051;51.548;14.348;2023-02-15T12:01:02;30.60;;;19.50;;
17850;SDS011;9051;51.548;14.348;2023-02-15T12:03:46;31.00;;;20.07;;
17850;SDS011;9051;51.548;14.348;2023-02-15T12:06:21;28.80;;;18.43;;
17850;SDS011;9051;51.548;14.348;2023-02-15T12:08:59;28.43;;;19.27;;
17850;SDS011;9051;51.548;14.348;2023-02-15T12:11:37;27.30;;;17.67;;
17850;SDS011;9051;51.548;14.348;2023-02-15T12:14:12;27.23;;;18.03;;
17850;SDS011;9051;51.548;14.348;2023-02-15T12:16:46;25.80;;;17.40;;
17850;SDS011;9051;51.548;14.348;2023-02-15T12:19:28;25.47;;;17.53;;
17850;SDS011;9051;51.548;14.348;2023-02-15T12:22:02;27.83;;;19.13;;
17850;SDS011;9051;51.548;14.348;2023-02-15T12:24:36;30.23;;;19.57;;
17850;SDS011;9051;51.548;14.348;2023-02-15T12:27:15;30.10;;;20.67;;
17850;SDS011;9051;51.548;14.348;2023-02-15T12:29:50;27.17;;;17.60;;
17850;SDS011;9051;51.548;14.348;2023-02-15T12:32:25;27.37;;;18.20;;
17850;SDS011;9051;51.548;14.348;2023-02-15T12:35:00;28.83;;;18.20;;
17850;SDS011;9051;51.548;14.348;2023-02-15T12:37:38;26.50;;;18.03;;
17850;SDS011;9051;51.548;14.348;2023-02-15T12:40:23;25.57;;;18.00;;
17850;SDS011;9051;51.548;14.348;2023-02-15T12:42:57;27.07;;;18.93;;
17850;SDS011;9051;51.548;14.348;2023-02-15T12:45:32;26.07;;;17.50;;
17850;SDS011;9051;51.548;14.348;2023-02-15T12:48:09;27.10;;;17.83;;
17850;SDS011;9051;51.548;14.348;2023-02-15T12:50:46;25.77;;;17.57;;
17850;SDS011;9051;51.548;14.348;2023-02-15T12:53:20;26.87;;;18.07;;
17850;SDS011;9051;51.548;14.348;2023-02-15T12:56:01;28.57;;;18.73;;
17850;SDS011;9051;51.548;14.348;2023-02-15T12:58:35;28.43;;;18.90;;
17850;SDS011;9051;51.548;14.348;2023-02-15T13:01:13;27.17;;;18.53;;
17850;SDS011;9051;51.548;14.348;2023-02-15T13:03:55;23.13;;;17.13;;
17850;SDS011;9051;51.548;14.348;2023-02-15T13:06:33;25.53;;;17.90;;
17850;SDS011;9051;51.548;14.348;2023-02-15T13:09:08;24.90;;;17.97;;
17850;SDS011;9051;51.548;14.348;2023-02-15T13:11:50;25.30;;;18.00;;
17850;SDS011;9051;51.548;14.348;2023-02-15T13:14:25;26.47;;;18.67;;
17850;SDS011;9051;51.548;14.348;2023-02-15T13:17:03;25.57;;;18.03;;
17850;SDS011;9051;51.548;14.348;2023-02-15T13:19:36;27.43;;;18.90;;
17850;SDS011;9051;51.548;14.348;2023-02-15T13:22:13;27.87;;;19.17;;
17850;SDS011;9051;51.548;14.348;2023-02-15T13:24:48;28.50;;;19.33;;
17850;SDS011;9051;51.548;14.348;2023-02-15T13:27:26;28.77;;;18.17;;
17850;SDS011;9051;51.548;14.348;2023-02-15T13:30:04;26.87;;;18.47;;
17850;SDS011;9051;51.548;14.348;2023-02-15T13:32:57;26.90;;;17.97;;
17850;SDS011;9051;51.548;14.348;2023-02-15T13:35:35;24.47;;;17.53;;
17850;SDS011;9051;51.548;14.348;2023-02-15T13:38:21;22.83;;;16.93;;
17850;SDS011;9051;51.548;14.348;2023-02-15T13:41:09;22.23;;;16.63;;
17850;SDS011;9051;51.548;14.348;2023-02-15T13:43:47;23.97;;;16.97;;
17850;SDS011;9051;51.548;14.348;2023-02-15T13:46:28;25.13;;;17.90;;
17850;SDS011;9051;51.548;14.348;2023-02-15T13:49:14;27.50;;;18.40;;
17850;SDS011;9051;51.548;14.348;2023-02-15T13:51:59;23.43;;;17.37;;
17850;SDS011;9051;51.548;14.348;2023-02-15T13:54:47;29.63;;;19.07;;
17850;SDS011;9051;51.548;14.348;2023-02-15T13:57:41;26.97;;;17.43;;
17850;SDS011;9051;51.548;14.348;2023-02-15T14:00:35;28.07;;;18.77;;
17850;SDS011;9051;51.548;14.348;2023-02-15T14:03:28;27.47;;;19.10;;
17850;SDS011;9051;51.548;14.348;2023-02-15T14:06:38;28.63;;;19.17;;
17850;SDS011;9051;51.548;14.348;2023-02-15T14:09:24;28.43;;;18.97;;
17850;SDS011;9051;51.548;14.348;2023-02-15T14:12:15;26.57;;;17.77;;
17850;SDS011;9051;51.548;14.348;2023-02-15T14:15:02;25.80;;;18.50;;
17850;SDS011;9051;51.548;14.348;2023-02-15T14:17:47;23.00;;;17.47;;
17850;SDS011;9051;51.548;14.348;2023-02-15T14:20:36;27.53;;;18.07;;
17850;SDS011;9051;51.548;14.348;2023-02-15T14:23:21;22.90;;;17.27;;
17850;SDS011;9051;51.548;14.348;2023-02-15T14:26:06;28.07;;;18.67;;
17850;SDS011;9051;51.548;14.348;2023-02-15T14:28:45;24.03;;;17.47;;
17850;SDS011;9051;51.548;14.348;2023-02-15T14:31:26;23.80;;;16.97;;
17850;SDS011;9051;51.548;14.348;2023-02-15T14:34:01;26.97;;;18.40;;
17850;SDS011;9051;51.548;14.348;2023-02-15T14:36:34;27.87;;;18.70;;
17850;SDS011;9051;51.548;14.348;2023-02-15T14:39:11;26.00;;;17.67;;
17850;SDS011;9051;51.548;14.348;2023-02-15T14:42:11;28.70;;;19.00;;
17850;SDS011;9051;51.548;14.348;2023-02-15T14:44:49;29.53;;;19.20;;
17850;SDS011;9051;51.548;14.348;2023-02-15T14:47:31;30.90;;;20.17;;
17850;SDS011;9051;51.548;14.348;2023-02-15T15:01:51;32.57;;;21.00;;
17850;SDS011;9051;51.548;14.348;2023-02-15T15:04:29;37.47;;;22.77;;
17850;SDS011;9051;51.548;14.348;2023-02-15T15:07:08;33.37;;;22.17;;
17850;SDS011;9051;51.548;14.348;2023-02-15T15:09:46;36.13;;;21.80;;
17850;SDS011;9051;51.548;14.348;2023-02-15T15:12:38;34.23;;;22.47;;
17850;SDS011;9051;51.548;14.348;2023-02-15T15:15:12;34.30;;;21.53;;
17850;SDS011;9051;51.548;14.348;2023-02-15T15:17:55;34.33;;;22.03;;
17850;SDS011;9051;51.548;14.348;2023-02-15T15:20:40;31.93;;;20.77;;
17850;SDS011;9051;51.548;14.348;2023-02-15T15:26:23;38.17;;;23.03;;
17850;SDS011;9051;51.548;14.348;2023-02-15T15:29:01;38.87;;;22.70;;
17850;SDS011;9051;51.548;14.348;2023-02-15T15:31:42;35.57;;;21.67;;
17850;SDS011;9051;51.548;14.348;2023-02-15T15:34:34;35.87;;;21.17;;
17850;SDS011;9051;51.548;14.348;2023-02-15T15:37:44;32.17;;;20.83;;
17850;SDS011;9051;51.548;14.348;2023-02-15T15:40:37;34.50;;;21.00;;
17850;SDS011;9051;51.548;14.348;2023-02-15T15:43:31;34.07;;;21.93;;
17850;SDS011;9051;51.548;14.348;2023-02-15T15:49:20;34.57;;;22.67;;
17850;SDS011;9051;51.548;14.348;2023-02-15T15:51:54;36.83;;;22.73;;